Time;durP1;ratioP1;P1;durP2;ratioP2;P2;SDS_P1;SDS_P2;PMS_P1;PMS_P2;Temp;Humidity;BMP_temperature;BMP_pressure;BME280_temperature;BME280_humidity;BME280_pressure;Samples;Min_cycle;Max_cycle;Signal;HPM_P1;HPM_P2
2023/09/01 00:00:24;;;;;;;42.70;39.85;;;11.00;99.90;;;;;;6241154;23;20073;-78
2023/09/01 00:02:51;;;;;;;45.63;42.58;;;10.90;99.90;;;;;;6239096;23;20020;-78
2023/09/01 00:05:16;;;;;;;45.17;42.35;;;10.90;99.90;;;;;;6239738;23;20008;-78
2023/09/01 00:07:42;;;;;;;50.30;47.22;;;10.90;99.90;;;;;;6239830;23;20472;-78
2023/09/01 00:10:08;;;;;;;42.42;39.35;;;10.90;99.90;;;;;;6240013;23;20331;-78
2023/09/01 00:12:33;;;;;;;49.50;46.40;;;10.90;99.90;;;;;;6239952;23;20016;-78
2023/09/01 00:14:59;;;;;;;50.60;47.30;;;10.90;99.90;;;;;;6239794;23;20016;-78
2023/09/01 00:17:25;;;;;;;43.90;40.65;;;10.90;99.90;;;;;;6239012;23;20012;-78
2023/09/01 00:19:50;;;;;;;49.28;46.20;;;10.90;99.90;;;;;;6239780;23;20012;-78
2023/09/01 00:22:16;;;;;;;45.92;43.22;;;10.90;99.90;;;;;;6239566;23;20012;-78
2023/09/01 00:24:42;;;;;;;47.58;44.65;;;10.90;99.90;;;;;;6214394;23;20008;-78
2023/09/01 00:27:07;;;;;;;49.22;46.05;;;10.80;99.90;;;;;;6214404;23;20004;-79
2023/09/01 00:29:34;;;;;;;49.92;46.50;;;10.80;99.90;;;;;;6241582;22;20227;-78
2023/09/01 00:32:01;;;;;;;45.25;42.58;;;10.80;99.90;;;;;;6239313;23;20083;-78
2023/09/01 00:34:30;;;;;;;49.72;46.75;;;10.80;99.90;;;;;;6241062;22;20012;-78
2023/09/01 00:36:55;;;;;;;47.67;44.80;;;10.80;99.90;;;;;;6239395;23;20012;-78
2023/09/01 00:39:21;;;;;;;46.58;43.60;;;10.80;99.90;;;;;;6239619;23;20074;-78
2023/09/01 00:41:46;;;;;;;40.72;38.08;;;10.70;99.90;;;;;;6240915;23;20022;-78
2023/09/01 00:44:15;;;;;;;50.78;47.60;;;10.70;99.90;;;;;;6239621;23;20501;-79
2023/09/01 00:46:46;;;;;;;47.42;44.38;;;10.70;99.90;;;;;;6238806;23;20455;-79
2023/09/01 00:49:12;;;;;;;46.25;43.35;;;10.60;99.90;;;;;;6240942;22;20466;-78
2023/09/01 00:51:38;;;;;;;47.47;44.38;;;10.60;99.90;;;;;;6241128;22;20443;-78
2023/09/01 00:54:05;;;;;;;50.33;47.20;;;10.60;99.90;;;;;;6239404;23;20626;-79
2023/09/01 00:56:31;;;;;;;46.00;43.28;;;10.60;99.90;;;;;;6241313;22;20012;-79
2023/09/01 00:58:56;;;;;;;44.70;42.05;;;10.60;99.90;;;;;;6239545;23;20062;-79
2023/09/01 01:01:22;;;;;;;49.90;46.83;;;10.50;99.90;;;;;;6238548;23;20022;-78
2023/09/01 01:03:51;;;;;;;43.33;40.58;;;10.50;99.90;;;;;;6239226;23;20081;-79
2023/09/01 01:06:49;;;;;;;52.60;48.80;;;10.50;99.90;;;;;;6213945;23;20020;-78
2023/09/01 01:09:43;;;;;;;46.95;43.75;;;10.50;99.90;;;;;;6239278;23;20008;-78
2023/09/01 01:12:42;;;;;;;50.70;47.72;;;10.50;99.90;;;;;;6240652;23;20073;-78
2023/09/01 01:15:10;;;;;;;50.53;47.50;;;10.40;99.90;;;;;;6213905;23;20016;-78
2023/09/01 01:17:41;;;;;;;52.25;49.00;;;10.40;99.90;;;;;;6238638;23;20055;-78
2023/09/01 01:20:30;;;;;;;49.92;46.85;;;10.50;99.90;;;;;;6239217;23;20015;-78
2023/09/01 01:23:14;;;;;;;50.03;46.72;;;10.40;99.90;;;;;;6239173;23;20012;-78
2023/09/01 01:25:51;;;;;;;55.17;51.78;;;10.40;99.90;;;;;;6239193;23;20043;-78
2023/09/01 01:28:17;;;;;;;53.38;49.85;;;10.30;99.90;;;;;;6239443;23;20019;-78
2023/09/01 01:30:46;;;;;;;56.13;52.17;;;10.30;99.90;;;;;;6240147;22;20005;-78
2023/09/01 01:33:24;;;;;;;59.28;55.20;;;10.30;99.90;;;;;;6237267;23;20095;-79
2023/09/01 01:36:08;;;;;;;58.67;54.72;;;10.30;99.90;;;;;;6240519;23;20094;-78
2023/09/01 01:38:38;;;;;;;50.90;47.78;;;10.30;99.90;;;;;;6212359;23;20012;-79
2023/09/01 01:41:14;;;;;;;53.85;50.33;;;10.20;99.90;;;;;;6238776;23;20339;-78
2023/09/01 01:43:42;;;;;;;54.95;51.05;;;10.30;99.90;;;;;;6213552;23;20012;-79
2023/09/01 01:46:08;;;;;;;53.28;49.72;;;10.30;99.90;;;;;;6212890;23;20010;-78
2023/09/01 01:48:39;;;;;;;51.30;48.22;;;10.20;99.90;;;;;;6240885;22;20075;-78
2023/09/01 01:51:05;;;;;;;40.97;38.22;;;10.20;99.90;;;;;;6239212;23;20012;-78
2023/09/01 01:53:34;;;;;;;49.65;46.38;;;10.20;99.90;;;;;;6238697;23;20012;-78
2023/09/01 01:55:59;;;;;;;50.63;47.13;;;10.20;99.90;;;;;;6239271;23;20019;-79
2023/09/01 01:58:25;;;;;;;47.88;44.90;;;10.20;99.90;;;;;;6213545;23;20343;-79
2023/09/01 02:00:51;;;;;;;43.95;41.33;;;10.30;99.90;;;;;;6213313;23;20022;-79
2023/09/01 02:03:17;;;;;;;46.90;43.80;;;10.30;99.90;;;;;;6213263;23;20044;-78
2023/09/01 02:05:43;;;;;;;56.33;52.75;;;10.20;99.90;;;;;;6213761;23;20012;-79
2023/09/01 02:08:08;;;;;;;47.55;44.63;;;10.20;99.90;;;;;;6213512;23;20004;-79
2023/09/01 02:10:34;;;;;;;52.10;48.75;;;10.20;99.90;;;;;;6238629;23;20012;-78
2023/09/01 02:13:01;;;;;;;54.78;51.33;;;10.20;99.90;;;;;;6239247;23;20343;-78
2023/09/01 02:15:27;;;;;;;56.40;52.63;;;10.20;99.90;;;;;;6238572;23;20009;-79
2023/09/01 02:17:52;;;;;;;43.60;40.55;;;10.40;99.90;;;;;;6240509;22;20102;-78
2023/09/01 02:20:18;;;;;;;45.22;42.40;;;10.10;99.90;;;;;;6213511;23;20015;-78
2023/09/01 02:22:45;;;;;;;48.03;44.42;;;10.10;99.90;;;;;;6238833;23;20332;-79
2023/09/01 02:25:12;;;;;;;48.85;45.35;;;10.10;99.90;;;;;;6240621;23;20063;-78
2023/09/01 02:27:39;;;;;;;48.83;45.80;;;10.10;99.90;;;;;;6242800;22;20313;-78
2023/09/01 02:30:08;;;;;;;47.45;44.50;;;10.10;99.90;;;;;;6214671;23;20557;-79
2023/09/01 02:32:33;;;;;;;52.67;49.03;;;10.10;99.90;;;;;;6215386;23;20016;-78
2023/09/01 02:35:00;;;;;;;44.20;41.10;;;10.10;99.90;;;;;;6215246;23;20019;-79
2023/09/01 02:37:26;;;;;;;50.95;47.65;;;10.10;99.90;;;;;;6215396;23;20242;-78
2023/09/01 02:39:52;;;;;;;51.08;48.08;;;10.00;99.90;;;;;;6242651;22;20407;-78
2023/09/01 02:42:17;;;;;;;53.05;49.80;;;9.80;99.90;;;;;;6214822;23;20325;-78
2023/09/01 02:44:43;;;;;;;50.83;47.50;;;10.00;99.90;;;;;;6242303;23;20312;-78
2023/09/01 02:47:08;;;;;;;46.72;43.63;;;10.00;99.90;;;;;;6242131;23;20087;-78
2023/09/01 02:49:34;;;;;;;47.42;44.17;;;10.00;99.90;;;;;;6215340;23;20291;-78
2023/09/01 02:52:01;;;;;;;56.60;52.50;;;10.00;99.90;;;;;;6240713;23;20027;-79
2023/09/01 02:54:27;;;;;;;60.10;55.78;;;9.90;99.90;;;;;;6242456;22;20016;-78
2023/09/01 02:56:53;;;;;;;49.08;45.80;;;10.10;99.90;;;;;;6240340;23;20012;-78
2023/09/01 02:59:19;;;;;;;57.58;54.00;;;10.00;99.90;;;;;;6242818;23;20439;-78
2023/09/01 03:01:44;;;;;;;45.60;42.60;;;9.90;99.90;;;;;;6242341;23;20238;-78
2023/09/01 03:04:10;;;;;;;45.08;41.63;;;9.90;99.90;;;;;;6215645;23;20015;-78
2023/09/01 03:06:35;;;;;;;53.75;50.30;;;9.90;99.90;;;;;;6215100;23;20008;-78
2023/09/01 03:09:02;;;;;;;59.65;55.97;;;9.90;99.90;;;;;;6214943;23;20016;-78
2023/09/01 03:11:28;;;;;;;58.50;54.65;;;9.90;99.90;;;;;;6239752;23;20069;-78
2023/09/01 03:13:54;;;;;;;44.63;41.70;;;9.90;99.90;;;;;;6240773;23;20090;-78
2023/09/01 03:16:19;;;;;;;46.70;43.65;;;9.80;99.90;;;;;;6240347;23;20402;-78
2023/09/01 03:18:45;;;;;;;51.53;48.13;;;9.80;99.90;;;;;;6215006;23;20044;-79
2023/09/01 03:21:14;;;;;;;53.42;50.25;;;9.80;99.90;;;;;;6240072;23;20016;-78
2023/09/01 03:23:41;;;;;;;42.88;40.13;;;9.80;99.90;;;;;;6215005;23;20012;-78
2023/09/01 03:26:06;;;;;;;41.08;38.42;;;9.80;99.90;;;;;;6214260;23;20008;-79
2023/09/01 03:28:32;;;;;;;44.92;42.10;;;9.80;99.90;;;;;;6242210;22;20516;-78
2023/09/01 03:30:58;;;;;;;57.20;53.72;;;9.70;99.90;;;;;;6240279;23;20065;-79
2023/09/01 03:33:24;;;;;;;57.60;54.05;;;9.70;99.90;;;;;;6241966;23;20012;-79
2023/09/01 03:35:49;;;;;;;44.40;41.40;;;9.70;99.90;;;;;;6241558;22;20009;-79
2023/09/01 03:38:15;;;;;;;65.97;62.08;;;9.70;99.90;;;;;;6239961;23;20012;-79
2023/09/01 03:40:41;;;;;;;56.15;52.47;;;9.70;99.90;;;;;;6214141;23;20005;-79
2023/09/01 03:43:09;;;;;;;62.78;58.75;;;9.70;99.90;;;;;;6241761;22;20016;-79
2023/09/01 03:45:35;;;;;;;42.33;39.58;;;9.60;99.90;;;;;;6241928;22;20015;-78
2023/09/01 03:48:01;;;;;;;55.65;51.75;;;9.60;99.90;;;;;;6242231;23;20055;-78
2023/09/01 03:50:27;;;;;;;37.75;35.50;;;9.60;99.90;;;;;;6239997;23;20008;-78
2023/09/01 03:52:52;;;;;;;41.05;38.40;;;9.60;99.90;;;;;;6214683;23;20466;-79
2023/09/01 03:55:18;;;;;;;54.05;50.60;;;9.70;99.90;;;;;;6241100;23;20012;-78
2023/09/01 03:57:44;;;;;;;48.08;45.05;;;9.60;99.90;;;;;;6240029;23;20008;-79
2023/09/01 04:00:11;;;;;;;58.13;54.67;;;9.60;99.90;;;;;;6245735;22;20345;-78
2023/09/01 04:02:37;;;;;;;45.47;42.63;;;9.60;99.90;;;;;;6239869;23;20069;-78
2023/09/01 04:05:03;;;;;;;44.78;41.92;;;9.60;99.90;;;;;;6239722;23;20095;-78
2023/09/01 04:07:29;;;;;;;44.88;41.83;;;9.60;99.90;;;;;;6239875;23;20016;-78
2023/09/01 04:09:56;;;;;;;61.17;57.35;;;9.50;99.90;;;;;;6239115;23;20011;-78
2023/09/01 04:12:22;;;;;;;46.70;43.42;;;9.50;99.90;;;;;;6239759;23;20104;-78
2023/09/01 04:14:47;;;;;;;49.17;46.00;;;9.50;99.90;;;;;;6240073;23;20455;-78
2023/09/01 04:17:13;;;;;;;43.00;39.85;;;9.60;99.90;;;;;;6241033;23;20111;-78
2023/09/01 04:19:38;;;;;;;37.70;35.05;;;9.50;99.90;;;;;;6241739;23;20011;-78
2023/09/01 04:22:04;;;;;;;50.10;46.75;;;9.50;99.90;;;;;;6239928;23;20008;-78
2023/09/01 04:24:30;;;;;;;36.80;34.40;;;9.50;99.90;;;;;;6240882;23;20066;-78
2023/09/01 04:26:55;;;;;;;42.22;39.28;;;9.50;99.90;;;;;;6239780;23;20470;-78
2023/09/01 04:29:21;;;;;;;43.35;40.60;;;9.50;99.90;;;;;;6214405;23;20008;-78
2023/09/01 04:31:48;;;;;;;49.67;46.45;;;9.40;99.90;;;;;;6239525;23;20030;-79
2023/09/01 04:34:14;;;;;;;54.00;50.17;;;9.40;99.90;;;;;;6239328;23;20419;-78
2023/09/01 04:36:39;;;;;;;49.38;46.00;;;9.40;99.90;;;;;;6239496;23;20031;-78
2023/09/01 04:39:05;;;;;;;46.05;43.10;;;9.40;99.90;;;;;;6239046;23;20012;-78
2023/09/01 04:41:34;;;;;;;51.08;47.83;;;9.50;99.90;;;;;;6239027;23;20012;-78
2023/09/01 04:43:59;;;;;;;51.70;48.25;;;9.40;99.90;;;;;;6239491;23;20016;-78
2023/09/01 04:46:25;;;;;;;40.92;38.35;;;9.40;99.90;;;;;;6239662;23;20019;-78
2023/09/01 04:48:51;;;;;;;46.88;43.53;;;9.40;99.90;;;;;;6239367;23;20008;-78
2023/09/01 04:51:16;;;;;;;53.10;49.45;;;9.40;99.90;;;;;;6239212;23;20048;-78
2023/09/01 04:53:42;;;;;;;54.15;50.65;;;9.40;99.90;;;;;;6241074;23;20133;-78
2023/09/01 04:56:07;;;;;;;46.78;43.83;;;9.40;99.90;;;;;;6241239;23;20074;-78
2023/09/01 04:58:33;;;;;;;50.47;47.45;;;9.40;99.90;;;;;;6239571;23;20091;-78
2023/09/01 05:00:59;;;;;;;46.38;43.42;;;9.50;99.90;;;;;;6213997;23;20038;-78
2023/09/01 05:03:25;;;;;;;56.53;52.95;;;9.50;99.90;;;;;;6239137;23;20019;-78
2023/09/01 05:05:51;;;;;;;46.08;42.72;;;9.50;99.90;;;;;;6239145;23;20061;-78
2023/09/01 05:08:17;;;;;;;45.15;41.70;;;9.60;99.90;;;;;;6213355;23;20087;-78
2023/09/01 05:10:43;;;;;;;52.63;49.15;;;9.60;99.90;;;;;;6239518;23;20439;-78
2023/09/01 05:13:09;;;;;;;40.80;38.00;;;9.70;99.90;;;;;;6239505;23;20016;-78
2023/09/01 05:15:35;;;;;;;48.05;44.60;;;9.90;99.90;;;;;;6239423;23;20012;-78
2023/09/01 05:18:01;;;;;;;41.90;39.00;;;10.10;99.90;;;;;;6241073;22;20047;-78
2023/09/01 05:20:26;;;;;;;45.65;42.67;;;9.90;99.90;;;;;;6238977;23;20473;-78
2023/09/01 05:22:52;;;;;;;41.85;39.03;;;9.90;99.90;;;;;;6238717;23;20016;-79
2023/09/01 05:25:18;;;;;;;47.75;44.38;;;10.00;99.90;;;;;;6239375;23;20367;-78
2023/09/01 05:27:44;;;;;;;46.20;43.10;;;10.10;99.90;;;;;;6240991;23;20009;-78
2023/09/01 05:30:12;;;;;;;49.67;46.55;;;10.10;99.90;;;;;;6239428;23;20012;-78
2023/09/01 05:32:38;;;;;;;46.88;43.78;;;10.20;99.90;;;;;;6240653;23;20043;-78
2023/09/01 05:35:04;;;;;;;49.00;46.00;;;10.20;99.90;;;;;;6213288;23;20347;-78
2023/09/01 05:37:30;;;;;;;41.72;38.90;;;10.30;99.90;;;;;;6238491;23;20528;-78
2023/09/01 05:39:56;;;;;;;43.80;40.75;;;10.40;99.90;;;;;;6213684;23;20016;-78
2023/09/01 05:42:21;;;;;;;39.45;36.95;;;10.50;99.90;;;;;;6240401;22;20013;-78
2023/09/01 05:44:47;;;;;;;35.60;33.08;;;10.60;99.90;;;;;;6239180;23;20016;-79
2023/09/01 05:47:13;;;;;;;39.60;36.75;;;10.70;99.90;;;;;;6238757;23;20410;-79
2023/09/01 05:49:39;;;;;;;38.13;35.67;;;10.90;99.90;;;;;;6240953;23;20054;-79
2023/09/01 05:52:05;;;;;;;38.83;36.30;;;11.20;99.90;;;;;;6238308;23;20035;-79
2023/09/01 05:54:31;;;;;;;41.75;38.95;;;11.20;99.90;;;;;;6213775;23;20455;-79
2023/09/01 05:56:56;;;;;;;30.42;28.45;;;11.30;99.90;;;;;;6213921;23;20099;-79
2023/09/01 05:59:22;;;;;;;30.25;28.15;;;11.50;99.90;;;;;;6239256;23;20020;-79
2023/09/01 06:01:48;;;;;;;26.42;24.13;;;11.60;99.90;;;;;;6240668;23;20016;-79
2023/09/01 06:04:14;;;;;;;30.45;28.15;;;11.80;99.90;;;;;;6240740;23;20012;-78
2023/09/01 06:06:40;;;;;;;24.75;22.75;;;11.90;99.90;;;;;;6239906;23;20012;-78
2023/09/01 06:09:07;;;;;;;25.85;23.98;;;12.10;99.90;;;;;;6239141;23;20008;-78
2023/09/01 06:11:35;;;;;;;26.50;24.13;;;12.60;99.90;;;;;;6238664;23;20013;-78
2023/09/01 06:14:01;;;;;;;23.45;21.75;;;12.50;99.90;;;;;;6240748;22;20016;-78
2023/09/01 06:16:27;;;;;;;20.73;18.98;;;12.70;99.90;;;;;;6238665;23;20016;-79
2023/09/01 06:18:53;;;;;;;26.40;24.02;;;13.20;99.90;;;;;;6213263;23;20009;-78
2023/09/01 06:21:19;;;;;;;20.52;18.73;;;13.50;99.90;;;;;;6212804;23;20090;-78
2023/09/01 06:23:46;;;;;;;24.33;22.52;;;13.70;99.90;;;;;;6238631;23;20435;-78
2023/09/01 06:26:17;;;;;;;24.00;22.05;;;13.90;99.90;;;;;;6240635;22;20009;-78
2023/09/01 06:28:44;;;;;;;20.52;18.77;;;14.20;99.90;;;;;;6240510;22;20335;-78
2023/09/01 06:31:10;;;;;;;26.90;24.92;;;14.60;99.90;;;;;;6238553;23;20019;-78
2023/09/01 06:33:36;;;;;;;16.05;14.50;;;15.20;99.90;;;;;;6213289;23;20016;-78
2023/09/01 06:36:02;;;;;;;9.38;8.35;;;15.70;99.90;;;;;;6239773;22;20023;-79
2023/09/01 06:38:28;;;;;;;13.50;10.80;;;16.30;99.90;;;;;;6238639;23;20012;-79
2023/09/01 06:40:54;;;;;;;16.73;15.07;;;17.10;99.90;;;;;;6213007;23;20015;-79
2023/09/01 06:43:19;;;;;;;16.35;15.15;;;17.70;99.90;;;;;;6240124;23;20048;-80
2023/09/01 06:45:45;;;;;;;11.60;10.65;;;17.80;99.90;;;;;;6240424;23;20338;-79
2023/09/01 06:48:10;;;;;;;13.02;11.90;;;17.50;99.90;;;;;;6238298;23;20048;-79
2023/09/01 06:50:38;;;;;;;14.43;13.18;;;17.30;99.90;;;;;;6237034;23;20023;-79
2023/09/01 06:53:07;;;;;;;16.10;14.60;;;17.00;99.90;;;;;;6212537;23;20062;-79
2023/09/01 06:55:32;;;;;;;14.75;13.73;;;16.80;99.90;;;;;;6237480;23;20055;-80
2023/09/01 06:57:59;;;;;;;15.27;13.90;;;16.60;99.90;;;;;;6239371;23;20016;-79
2023/09/01 07:00:25;;;;;;;15.43;14.25;;;16.50;99.90;;;;;;6237664;23;20019;-80
2023/09/01 07:02:51;;;;;;;18.45;17.13;;;16.30;99.90;;;;;;6237559;23;20016;-79
2023/09/01 07:05:17;;;;;;;14.95;13.52;;;16.20;99.90;;;;;;6237898;23;20350;-79
2023/09/01 07:07:43;;;;;;;19.95;18.45;;;16.20;99.90;;;;;;6239051;23;20012;-79
2023/09/01 07:10:09;;;;;;;17.60;16.17;;;16.20;99.90;;;;;;6241923;22;20082;-79
2023/09/01 07:12:34;;;;;;;18.67;17.23;;;16.20;99.90;;;;;;6240847;23;20654;-79
2023/09/01 07:15:00;;;;;;;14.52;13.02;;;16.30;99.90;;;;;;6242613;23;20008;-79
2023/09/01 07:17:26;;;;;;;17.85;16.50;;;16.40;99.90;;;;;;6240307;23;20559;-79
2023/09/01 07:19:52;;;;;;;15.93;14.77;;;16.40;99.90;;;;;;6239801;23;20099;-79
2023/09/01 07:22:17;;;;;;;13.85;12.65;;;16.40;99.90;;;;;;6240237;23;20466;-79
2023/09/01 07:24:43;;;;;;;18.17;16.58;;;16.30;99.90;;;;;;6240806;23;20012;-79
2023/09/01 07:27:09;;;;;;;14.65;13.65;;;16.40;99.90;;;;;;6240273;23;20005;-79
2023/09/01 07:29:35;;;;;;;17.27;15.77;;;16.50;99.90;;;;;;6240282;23;20036;-80
2023/09/01 07:32:01;;;;;;;16.00;14.48;;;16.50;99.90;;;;;;6240396;23;20082;-79
2023/09/01 07:34:27;;;;;;;15.88;14.77;;;16.50;99.90;;;;;;6214241;23;20015;-79
2023/09/01 07:36:53;;;;;;;18.42;17.00;;;16.60;99.90;;;;;;6240448;23;20016;-80
2023/09/01 07:39:18;;;;;;;15.98;14.88;;;16.60;99.90;;;;;;6242464;22;20462;-79
2023/09/01 07:41:44;;;;;;;17.27;16.10;;;16.60;99.90;;;;;;6214352;23;20391;-79
2023/09/01 07:44:10;;;;;;;17.17;16.08;;;16.60;99.90;;;;;;6240262;23;20012;-79
2023/09/01 07:46:35;;;;;;;16.58;15.35;;;16.60;99.90;;;;;;6239799;23;20016;-79
2023/09/01 07:49:02;;;;;;;14.93;13.77;;;16.70;99.90;;;;;;6239435;23;20397;-79
2023/09/01 07:51:28;;;;;;;16.13;14.95;;;16.70;99.90;;;;;;6242052;22;20089;-80
2023/09/01 07:53:54;;;;;;;15.80;14.55;;;16.80;99.90;;;;;;6239994;23;20012;-79
2023/09/01 07:56:23;;;;;;;17.42;15.90;;;16.90;99.90;;;;;;6240284;23;20019;-79
2023/09/01 07:58:49;;;;;;;16.17;14.88;;;17.00;99.90;;;;;;6240431;23;20017;-79
2023/09/01 08:01:14;;;;;;;16.88;15.27;;;17.10;99.90;;;;;;6214686;23;20004;-79
2023/09/01 08:03:40;;;;;;;20.20;18.70;;;17.10;99.90;;;;;;6241085;23;20012;-79
2023/09/01 08:06:06;;;;;;;21.50;20.00;;;17.30;99.90;;;;;;6214374;23;20012;-79
2023/09/01 08:08:31;;;;;;;18.05;16.50;;;17.30;99.90;;;;;;6239701;23;20012;-79
2023/09/01 08:10:57;;;;;;;19.55;18.00;;;17.40;99.90;;;;;;6214581;23;20015;-79
2023/09/01 08:13:23;;;;;;;16.50;15.07;;;17.50;99.90;;;;;;6214635;23;20012;-79
2023/09/01 08:15:49;;;;;;;20.92;19.20;;;17.50;99.90;;;;;;6239733;23;20008;-79
2023/09/01 08:18:15;;;;;;;20.80;19.40;;;17.50;99.90;;;;;;6214379;23;20083;-79
2023/09/01 08:20:42;;;;;;;14.88;13.85;;;17.60;99.90;;;;;;6239285;23;20412;-79
2023/09/01 08:23:09;;;;;;;23.40;21.77;;;17.70;99.90;;;;;;6239735;23;20081;-79
2023/09/01 08:25:35;;;;;;;21.92;20.42;;;17.80;99.90;;;;;;6241049;22;20008;-79
2023/09/01 08:28:03;;;;;;;22.77;21.08;;;17.80;99.90;;;;;;6239744;23;20012;-79
2023/09/01 08:30:28;;;;;;;14.50;13.40;;;18.00;99.90;;;;;;6240981;22;20004;-79
2023/09/01 08:32:54;;;;;;;15.02;13.88;;;18.20;99.90;;;;;;6239681;23;20022;-79
2023/09/01 08:35:20;;;;;;;26.50;24.10;;;18.30;99.90;;;;;;6214438;23;20008;-79
2023/09/01 08:37:45;;;;;;;19.67;18.20;;;18.40;99.90;;;;;;6239554;23;20008;-80
2023/09/01 08:40:11;;;;;;;14.43;12.75;;;18.70;99.90;;;;;;6239556;23;20062;-79
2023/09/01 08:42:48;;;;;;;26.05;24.27;;;18.60;99.90;;;;;;6239268;23;20517;-79
2023/09/01 08:45:15;;;;;;;25.50;23.75;;;18.60;99.90;;;;;;6239084;23;20012;-79
2023/09/01 08:47:45;;;;;;;17.65;15.80;;;18.70;99.90;;;;;;6241466;22;20031;-80
2023/09/01 08:50:11;;;;;;;14.25;13.00;;;18.70;99.90;;;;;;6214143;23;20012;-79
2023/09/01 08:52:40;;;;;;;25.30;23.30;;;18.90;99.90;;;;;;6214317;23;20023;-80
2023/09/01 08:55:06;;;;;;;22.23;20.73;;;18.90;99.90;;;;;;6214138;23;20052;-79
2023/09/01 08:57:32;;;;;;;18.23;16.95;;;18.90;99.90;;;;;;6241357;22;20386;-79
2023/09/01 08:59:57;;;;;;;13.63;12.52;;;18.90;99.90;;;;;;6238908;23;20012;-79
2023/09/01 09:02:23;;;;;;;14.15;13.13;;;19.00;99.90;;;;;;6240981;23;20009;-79
2023/09/01 09:04:49;;;;;;;13.45;12.40;;;19.10;99.90;;;;;;6239538;23;20012;-80
2023/09/01 09:07:20;;;;;;;11.13;10.07;;;19.10;99.90;;;;;;6241122;22;20016;-80
2023/09/01 09:10:06;;;;;;;19.33;17.83;;;18.90;99.90;;;;;;6241228;22;20023;-79
2023/09/01 09:12:43;;;;;;;17.48;16.25;;;18.70;99.90;;;;;;6214467;23;20513;-80
2023/09/01 09:15:14;;;;;;;15.13;13.63;;;18.70;99.90;;;;;;6240449;22;20443;-79
2023/09/01 09:17:48;;;;;;;16.40;15.30;;;18.80;99.90;;;;;;6239175;23;20384;-78
2023/09/01 09:20:18;;;;;;;17.02;15.75;;;18.90;99.90;;;;;;6239297;23;20016;-78
2023/09/01 09:22:56;;;;;;;16.73;15.48;;;18.90;99.90;;;;;;6238997;23;20156;-80
2023/09/01 09:25:35;;;;;;;17.08;15.95;;;18.90;99.90;;;;;;6239398;23;20308;-79
2023/09/01 09:28:11;;;;;;;21.52;20.10;;;19.00;99.90;;;;;;6239382;23;20043;-79
2023/09/01 09:30:47;;;;;;;24.10;22.17;;;19.10;99.90;;;;;;6240617;22;20083;-80
2023/09/01 09:33:12;;;;;;;22.00;20.45;;;19.10;99.90;;;;;;6238465;23;20012;-79
2023/09/01 09:35:49;;;;;;;20.05;18.67;;;19.00;99.90;;;;;;6238940;23;20044;-79
2023/09/01 09:38:15;;;;;;;20.80;19.25;;;18.90;99.90;;;;;;6213644;23;20032;-80
2023/09/01 09:40:40;;;;;;;16.40;15.20;;;19.00;99.90;;;;;;6238788;23;20047;-80
2023/09/01 09:43:09;;;;;;;26.10;24.05;;;18.90;99.90;;;;;;6239808;23;20016;-80
2023/09/01 09:45:37;;;;;;;21.80;20.17;;;18.90;99.90;;;;;;6240947;22;20291;-79
2023/09/01 09:48:04;;;;;;;22.63;20.77;;;18.80;99.90;;;;;;6238713;23;20023;-79
2023/09/01 09:50:31;;;;;;;18.25;17.00;;;18.90;99.90;;;;;;6238919;23;20091;-79
2023/09/01 09:53:00;;;;;;;20.13;18.52;;;18.90;99.90;;;;;;6213357;23;20012;-79
2023/09/01 09:55:27;;;;;;;21.75;20.27;;;18.80;99.90;;;;;;6238725;23;20012;-79
2023/09/01 09:58:07;;;;;;;23.10;21.40;;;18.80;99.90;;;;;;6238212;23;20567;-80
2023/09/01 10:00:55;;;;;;;14.32;13.25;;;18.90;99.90;;;;;;6239116;23;20530;-80
2023/09/01 10:03:25;;;;;;;18.40;16.83;;;18.80;99.90;;;;;;6238721;23;20058;-79
2023/09/01 10:05:51;;;;;;;20.05;18.40;;;18.90;99.90;;;;;;6238839;23;20015;-79
2023/09/01 10:08:20;;;;;;;24.98;23.23;;;18.80;99.90;;;;;;6238863;23;20004;-80
2023/09/01 10:10:46;;;;;;;18.65;16.95;;;18.70;99.90;;;;;;6238855;23;20091;-79
2023/09/01 10:13:12;;;;;;;23.45;21.75;;;18.70;99.90;;;;;;6212913;23;20020;-79
2023/09/01 10:15:38;;;;;;;19.95;18.50;;;18.70;99.90;;;;;;6239328;23;20012;-80
2023/09/01 10:18:07;;;;;;;25.83;24.13;;;18.80;99.90;;;;;;6213359;23;20012;-80
2023/09/01 10:20:42;;;;;;;16.88;15.70;;;18.80;99.90;;;;;;6238703;23;20087;-80
2023/09/01 10:23:09;;;;;;;19.45;17.92;;;18.90;99.90;;;;;;6238886;23;20095;-80
2023/09/01 10:25:35;;;;;;;20.17;18.52;;;18.90;99.90;;;;;;6239137;23;20039;-80
2023/09/01 10:28:05;;;;;;;20.75;19.35;;;18.90;99.90;;;;;;6240193;22;20019;-80
2023/09/01 10:30:42;;;;;;;16.00;14.85;;;18.80;99.90;;;;;;6213365;23;20008;-80
2023/09/01 10:33:15;;;;;;;17.23;15.88;;;18.90;99.90;;;;;;6213253;23;20011;-79
2023/09/01 10:35:43;;;;;;;22.93;21.37;;;18.90;99.90;;;;;;6240879;22;20030;-79
2023/09/01 10:38:42;;;;;;;20.27;18.88;;;18.90;99.90;;;;;;6238953;23;20016;-80
2023/09/01 10:41:07;;;;;;;23.88;21.77;;;19.00;99.90;;;;;;6181217;23;20342;-79
2023/09/01 10:43:44;;;;;;;19.80;18.30;;;19.00;99.90;;;;;;6238385;23;20426;-79
2023/09/01 10:46:16;;;;;;;19.77;18.38;;;19.20;99.90;;;;;;6240596;23;20016;-80
2023/09/01 10:48:51;;;;;;;23.55;22.08;;;19.30;99.90;;;;;;6240467;23;20015;-79
2023/09/01 10:51:30;;;;;;;29.92;27.88;;;19.40;99.90;;;;;;6240857;23;20084;-80
2023/09/01 10:53:57;;;;;;;18.70;17.10;;;19.50;99.90;;;;;;6215236;23;20454;-80
2023/09/01 10:56:24;;;;;;;22.63;21.13;;;19.50;99.90;;;;;;6241775;22;20024;-80
2023/09/01 10:58:52;;;;;;;20.67;19.27;;;19.60;99.90;;;;;;6215682;23;20055;-79
2023/09/01 11:01:37;;;;;;;26.02;24.30;;;19.80;99.90;;;;;;6240476;23;20004;-79
2023/09/01 11:04:21;;;;;;;23.90;22.10;;;20.00;99.90;;;;;;6240681;23;20043;-79
2023/09/01 11:07:06;;;;;;;29.80;27.88;;;20.20;99.90;;;;;;6242090;23;20263;-79
2023/09/01 11:09:35;;;;;;;28.17;26.45;;;20.20;99.90;;;;;;6240287;23;20027;-79
2023/09/01 11:12:03;;;;;;;22.13;20.45;;;20.10;99.90;;;;;;6239687;23;20023;-80
2023/09/01 11:14:33;;;;;;;22.30;20.63;;;20.10;99.90;;;;;;6214895;23;20054;-80
2023/09/01 11:17:05;;;;;;;31.08;28.90;;;20.10;99.90;;;;;;6240104;23;20011;-79
2023/09/01 11:19:34;;;;;;;22.25;20.77;;;20.10;99.90;;;;;;6240330;23;20062;-80
2023/09/01 11:22:00;;;;;;;20.55;19.00;;;20.00;99.90;;;;;;6240438;23;20011;-79
2023/09/01 11:24:26;;;;;;;41.65;38.70;;;20.10;99.90;;;;;;6240022;23;20008;-79
2023/09/01 11:26:52;;;;;;;30.40;28.45;;;20.00;99.90;;;;;;6242028;22;20008;-80
2023/09/01 11:29:20;;;;;;;23.55;21.80;;;20.20;99.90;;;;;;6240452;23;20062;-79
2023/09/01 11:31:46;;;;;;;28.27;25.92;;;20.20;99.90;;;;;;6215019;23;20012;-79
2023/09/01 11:34:13;;;;;;;42.47;39.63;;;20.20;99.90;;;;;;6241953;23;20019;-79
2023/09/01 11:36:51;;;;;;;31.40;29.27;;;20.00;99.90;;;;;;6242012;23;20023;-79
2023/09/01 11:39:18;;;;;;;60.78;56.88;;;20.10;99.90;;;;;;6241749;22;20016;-79
2023/09/01 11:41:45;;;;;;;44.20;41.25;;;20.00;99.90;;;;;;6214975;23;20008;-80
2023/09/01 11:44:11;;;;;;;31.38;29.38;;;20.00;99.90;;;;;;6240129;23;20035;-80
2023/09/01 11:46:37;;;;;;;35.67;32.78;;;20.00;99.90;;;;;;6242035;22;20012;-80
2023/09/01 11:49:04;;;;;;;27.25;25.25;;;20.10;99.90;;;;;;6240408;23;20008;-79
2023/09/01 11:51:35;;;;;;;42.50;39.67;;;20.20;99.90;;;;;;6242001;22;20051;-79
2023/09/01 11:54:01;;;;;;;43.30;40.33;;;20.30;99.90;;;;;;6239041;23;20012;-79
2023/09/01 11:56:27;;;;;;;45.38;42.30;;;20.40;99.90;;;;;;6214208;23;20012;-79
2023/09/01 11:58:55;;;;;;;57.53;53.50;;;20.50;99.90;;;;;;6242151;22;20016;-79
2023/09/01 12:01:23;;;;;;;117.40;109.68;;;20.70;99.90;;;;;;6214409;23;20016;-80
2023/09/01 12:03:54;;;;;;;115.18;107.70;;;20.60;99.90;;;;;;6214566;23;20130;-80
2023/09/01 12:06:23;;;;;;;80.57;75.40;;;20.60;99.90;;;;;;6239787;23;20375;-79
2023/09/01 12:08:51;;;;;;;50.42;47.28;;;20.60;99.90;;;;;;6239793;23;20107;-79
2023/09/01 12:11:17;;;;;;;142.23;133.38;;;20.70;99.90;;;;;;6239973;23;20019;-79
2023/09/01 12:13:46;;;;;;;156.40;146.05;;;20.80;99.90;;;;;;6214397;23;20043;-79
2023/09/01 12:16:24;;;;;;;200.90;188.50;;;20.70;99.90;;;;;;6214666;23;20512;-80
2023/09/01 12:18:52;;;;;;;198.52;186.27;;;20.70;99.90;;;;;;6214473;23;20012;-80
2023/09/01 12:21:18;;;;;;;133.40;124.97;;;20.90;99.90;;;;;;6239979;23;20028;-80
2023/09/01 12:23:46;;;;;;;174.18;162.93;;;21.20;99.90;;;;;;6238934;23;20016;-80
2023/09/01 12:26:15;;;;;;;282.42;264.55;;;21.40;99.90;;;;;;6239489;23;20008;-80
2023/09/01 12:28:42;;;;;;;193.32;180.27;;;21.50;99.90;;;;;;6241555;22;20335;-80
2023/09/01 12:31:09;;;;;;;127.15;118.38;;;21.60;99.90;;;;;;6241304;22;20502;-80